Langley Air Force Base
KLFI : now visible

Airfield :











YOU CAN JOIN US ON...

 
LOGIN :

Register | Disclaimer

   EN    FR    IT 

 









Legend :    VFR   Marginal VFR   IFR   Intensive IFR   Very Intensive IFR
Visi :
Ceiling :
>= 8 km
>= 3000ft
5 to 8 km
1000 to 3000 ft
1500m to 5 km
500 to 1000 ft
800 to 1500m
200 to 500 ft
< 800m
< 200 ft
Symbols :   Thunderstorms  Fog  Heavy snow  Heavy precipitations  Wind > 20 kt






- Airport Elevation : 11 ft


KLFI - Langley Air Force Base

CURRENT METAR :
  • 241456Z AUTO 25008KT 10SM CLR 23/20 A2998 RMK AO2 SLP159 T02270202 58007 $

EXPIRED METARs :
  • 241356Z AUTO 25006KT 10SM CLR 21/21 A3000 RMK AO2 SLP165 T02050205 $
  • 241256Z AUTO 22005KT 10SM CLR 18/18 A3000 RMK AO2 SLP165 T01800180 $

TAF AMD TAF KLFI
Valid from the 24 at 03:00 until the 25 at 07:00 UTC


240300Z 2403/2507 VRB06KT 9999 FEW015 SCT200 QNH3000INS
BECMG 2405/2406 21006KT 3200 BR FEW010 BKN020 QNH2997INS
BECMG 2413/2414 25006KT 9999 NSW SCT010 BKN180 QNH2995INS
BECMG 2421/2422 VRB06KT 4800 -SHRA BKN030 QNH2987INS
BECMG 2505/2506 02012G18KT 8000 -SHRA BKN005 OVC015 QNH2999INS TX25/2420Z TN16/2409Z LAST NO AMDS AFT 2403 NEXT 2609
KZDC FIR / North America



MET'MAP, your aeronautical weather chart ! - Copyright ORBIFLY December 2007 - Disclaimer

ORBIFLY MET'MAP TEAM :

Programming & Development : Alexandra Zaïnal
Concept & original design : Baudouin d'Aumeries
Assistance for programming : Marc-Olivier Méhu
Technical & hardware support : Manuel Goepfert

Contact : metmap@orbifly.com




SOURCES & CREDITS :

   NOAA       Earth
Advisory